createdAt,value
2022-12-03T00:00:37.318Z,99243.25
2022-12-03T00:03:04.094Z,99232.06
2022-12-03T00:05:30.765Z,99219.34
2022-12-03T00:07:57.357Z,99224.28
2022-12-03T00:10:24.209Z,99214.53
2022-12-03T00:12:50.804Z,99207.44
2022-12-03T00:15:17.345Z,99192.06
2022-12-03T00:17:44.359Z,99178.75
2022-12-03T00:20:19.068Z,99169.75
2022-12-03T00:22:45.453Z,99165.72
2022-12-03T00:25:12.321Z,99160.78
2022-12-03T00:27:38.821Z,99159.13
2022-12-03T00:30:06.629Z,99157.34
2022-12-03T00:32:33.142Z,99150.34
2022-12-03T00:34:59.742Z,99148.78
2022-12-03T00:37:26.475Z,99141.22
2022-12-03T00:39:53.100Z,99142.88
2022-12-03T00:42:19.640Z,99144.63
2022-12-03T00:44:46.125Z,99138.22
2022-12-03T00:47:12.952Z,99134.19
2022-12-03T00:49:39.507Z,99137.78
2022-12-03T00:52:06.066Z,99135.94
2022-12-03T00:54:32.710Z,99134.28
2022-12-03T00:56:59.507Z,99135.16
2022-12-03T00:59:26.018Z,99129.19
2022-12-03T01:01:52.689Z,99126.34
2022-12-03T01:04:19.274Z,99117.94
2022-12-03T01:06:45.997Z,99122.06
2022-12-03T01:09:12.559Z,99113.53
2022-12-03T01:11:39.130Z,99109.25
2022-12-03T01:14:13.784Z,99096.47
2022-12-03T01:16:40.388Z,99103.56
2022-12-03T01:19:07.946Z,99096.63
2022-12-03T01:21:35.010Z,99092.53
2022-12-03T01:24:01.921Z,99095.13
2022-12-03T01:26:28.541Z,99082.53
2022-12-03T01:28:55.107Z,99083.94
2022-12-03T01:31:40.355Z,99080.34
2022-12-03T01:34:06.965Z,99084.38
2022-12-03T01:36:36.544Z,99080.66
2022-12-03T01:39:04.123Z,99089.00
2022-12-03T01:41:32.247Z,99079.88
2022-12-03T01:43:59.800Z,99073.13
2022-12-03T01:46:35.032Z,99084.22
2022-12-03T01:49:01.689Z,99080.34
2022-12-03T01:51:29.856Z,99076.97
2022-12-03T01:53:56.623Z,99072.91
2022-12-03T01:56:23.094Z,99073.75
2022-12-03T01:58:50.190Z,99071.25
2022-12-03T02:01:19.030Z,99075.94
2022-12-03T02:03:46.534Z,99075.13
2022-12-03T02:06:19.256Z,99083.63
2022-12-03T02:08:47.163Z,99073.31
2022-12-03T02:11:22.448Z,99079.38
2022-12-03T02:13:53.281Z,99067.69
2022-12-03T02:16:20.910Z,99072.56
2022-12-03T02:18:48.173Z,99069.88
2022-12-03T02:21:41.507Z,99079.44
2022-12-03T02:24:11.078Z,99073.41
2022-12-03T02:26:37.717Z,99072.13
2022-12-03T02:29:04.270Z,99071.25
2022-12-03T02:31:31.914Z,99062.69
2022-12-03T02:33:58.667Z,99055.13
2022-12-03T02:36:25.387Z,99046.78
2022-12-03T02:38:52.042Z,99056.09
2022-12-03T02:41:39.584Z,99056.09
2022-12-03T02:44:08.285Z,99065.41
2022-12-03T02:46:35.467Z,99066.84
2022-12-03T02:49:04.482Z,99058.31
2022-12-03T02:51:31.352Z,99058.25
2022-12-03T02:53:59.356Z,99051.25
2022-12-03T02:56:29.620Z,99044.06
2022-12-03T02:59:01.326Z,99040.06
2022-12-03T03:01:28.105Z,99032.13
2022-12-03T03:03:55.183Z,99033.00
2022-12-03T03:06:21.990Z,99033.34
2022-12-03T03:08:49.354Z,99035.13
2022-12-03T03:11:15.910Z,99028.31
2022-12-03T03:13:43.011Z,99026.16
2022-12-03T03:16:10.276Z,99026.00
2022-12-03T03:18:37.134Z,99017.47
2022-12-03T03:21:04.490Z,99021.22
2022-12-03T03:23:31.126Z,99011.63
2022-12-03T03:26:06.055Z,99006.13
2022-12-03T03:28:35.892Z,99009.41
2022-12-03T03:31:05.308Z,99008.47
2022-12-03T03:33:33.471Z,99005.41
2022-12-03T03:36:01.044Z,99003.00
2022-12-03T03:38:29.732Z,98991.13
2022-12-03T03:40:57.977Z,98989.97
2022-12-03T03:43:25.674Z,98989.22
2022-12-03T03:45:54.409Z,98980.88
2022-12-03T03:48:22.420Z,98969.81
2022-12-03T03:50:50.781Z,98963.88
2022-12-03T03:53:18.550Z,98961.34
2022-12-03T03:55:45.688Z,98954.84
2022-12-03T03:58:12.556Z,98955.00
2022-12-03T04:00:39.375Z,98947.09
2022-12-03T04:03:06.832Z,98946.78
2022-12-03T04:05:33.714Z,98940.16
2022-12-03T04:08:00.327Z,98936.16
2022-12-03T04:10:45.934Z,98943.84
2022-12-03T04:13:12.519Z,98950.75
2022-12-03T04:15:39.061Z,98960.97
2022-12-03T04:18:24.521Z,98969.41
2022-12-03T04:20:51.017Z,98970.69
2022-12-03T04:23:17.599Z,98970.03
2022-12-03T04:26:02.787Z,98978.28
2022-12-03T04:28:47.634Z,98972.38
2022-12-03T04:31:32.966Z,98971.25
2022-12-03T04:34:17.783Z,98958.72
2022-12-03T04:36:44.308Z,98950.44
2022-12-03T04:39:10.804Z,98946.34
2022-12-03T04:41:37.313Z,98933.84
2022-12-03T04:44:22.335Z,98933.88
2022-12-03T04:46:48.706Z,98926.25
2022-12-03T04:49:15.152Z,98922.00
2022-12-03T04:51:41.667Z,98921.03
2022-12-03T04:54:08.227Z,98917.84
2022-12-03T04:56:34.704Z,98920.22
2022-12-03T04:59:01.185Z,98910.88
2022-12-03T05:01:27.857Z,98904.97
2022-12-03T05:03:54.565Z,98901.59
2022-12-03T05:06:21.350Z,98900.13
2022-12-03T05:08:48.130Z,98894.25
2022-12-03T05:11:14.749Z,98893.34
2022-12-03T05:13:43.012Z,98889.03
2022-12-03T05:16:10.275Z,98891.75
2022-12-03T05:18:37.012Z,98890.22
2022-12-03T05:21:03.842Z,98892.59
2022-12-03T05:23:30.551Z,98896.31
2022-12-03T05:25:57.080Z,98911.56
2022-12-03T05:28:24.278Z,98909.78
2022-12-03T05:30:52.005Z,98913.34
2022-12-03T05:33:18.763Z,98908.84
2022-12-03T05:35:45.312Z,98906.13
2022-12-03T05:38:11.850Z,98905.19
2022-12-03T05:40:38.540Z,98906.13
2022-12-03T05:43:05.435Z,98905.00
2022-12-03T05:45:38.032Z,98898.59
2022-12-03T05:48:06.780Z,98897.63
2022-12-03T05:50:35.370Z,98900.91
2022-12-03T05:53:02.928Z,98909.44
2022-12-03T05:55:29.703Z,98907.00
2022-12-03T05:57:56.603Z,98912.09
2022-12-03T06:00:34.568Z,98906.16
2022-12-03T06:03:07.717Z,98907.72
2022-12-03T06:05:35.025Z,98912.22
2022-12-03T06:08:02.335Z,98920.53
2022-12-03T06:10:29.445Z,98914.53
2022-12-03T06:12:56.391Z,98911.47
2022-12-03T06:15:23.481Z,98917.13
2022-12-03T06:17:50.052Z,98920.91
2022-12-03T06:20:19.515Z,98928.31
2022-12-03T06:22:46.498Z,98925.53
2022-12-03T06:25:13.797Z,98930.31
2022-12-03T06:27:40.389Z,98914.66
2022-12-03T06:30:08.844Z,98919.75
2022-12-03T06:32:35.561Z,98914.03
2022-12-03T06:35:02.174Z,98924.09
2022-12-03T06:37:28.697Z,98931.00
2022-12-03T06:39:55.217Z,98924.69
2022-12-03T06:42:21.710Z,98919.94
2022-12-03T06:44:48.237Z,98925.81
2022-12-03T06:47:14.740Z,98925.25
2022-12-03T06:49:41.213Z,98931.75
2022-12-03T06:52:07.757Z,98936.16
2022-12-03T06:54:34.393Z,98929.28
2022-12-03T06:57:00.941Z,98932.63
2022-12-03T06:59:27.488Z,98932.88
2022-12-03T07:01:54.027Z,98933.09
2022-12-03T07:04:20.516Z,98947.59
2022-12-03T07:06:47.039Z,98956.66
2022-12-03T07:09:16.370Z,98951.53
2022-12-03T07:11:43.259Z,98963.22
2022-12-03T07:14:11.363Z,98960.69
2022-12-03T07:16:38.722Z,98964.66
2022-12-03T07:19:06.704Z,98978.03
2022-12-03T07:21:33.428Z,98979.16
2022-12-03T07:24:00.207Z,98982.63
2022-12-03T07:26:26.789Z,98988.63
2022-12-03T07:28:53.337Z,98989.38
2022-12-03T07:31:19.890Z,98987.75
2022-12-03T07:33:46.429Z,99002.22
2022-12-03T07:36:13.060Z,99004.63
2022-12-03T07:38:39.629Z,99006.66
2022-12-03T07:41:06.561Z,99013.69
2022-12-03T07:43:33.185Z,99027.13
2022-12-03T07:45:59.709Z,99022.72
2022-12-03T07:48:26.225Z,99026.88
2022-12-03T07:50:52.823Z,99031.78
2022-12-03T07:53:19.393Z,99029.19
2022-12-03T07:55:45.936Z,99024.84
2022-12-03T07:58:12.403Z,99027.41
2022-12-03T08:00:39.468Z,99031.56
2022-12-03T08:03:06.106Z,99033.16
2022-12-03T08:05:32.621Z,99032.38
2022-12-03T08:07:59.279Z,99032.38
2022-12-03T08:10:26.666Z,99031.78
2022-12-03T08:12:53.752Z,99043.88
2022-12-03T08:15:24.314Z,99050.38
2022-12-03T08:18:01.748Z,99054.09
2022-12-03T08:20:33.362Z,99076.19
2022-12-03T08:23:06.716Z,99079.47
2022-12-03T08:25:33.627Z,99084.38
2022-12-03T08:28:14.120Z,99084.47
2022-12-03T08:30:42.365Z,99087.19
2022-12-03T08:33:27.185Z,99085.88
2022-12-03T08:35:54.047Z,99086.38
2022-12-03T08:38:24.741Z,99087.47
2022-12-03T08:40:52.787Z,99103.56
2022-12-03T08:43:25.596Z,99099.34
2022-12-03T08:45:56.896Z,99107.41
2022-12-03T08:48:27.829Z,99116.44
2022-12-03T08:50:58.006Z,99123.09
2022-12-03T08:53:36.234Z,99115.66
2022-12-03T08:56:16.674Z,99117.91
2022-12-03T08:58:46.294Z,99113.94
2022-12-03T09:01:13.094Z,99122.59
2022-12-03T09:03:49.167Z,99116.91
2022-12-03T09:06:15.818Z,99116.03
2022-12-03T09:08:42.993Z,99115.59
2022-12-03T09:11:09.586Z,99104.41
2022-12-03T09:13:36.132Z,99093.59
2022-12-03T09:16:02.665Z,99089.69
2022-12-03T09:18:29.155Z,99085.44
2022-12-03T09:20:56.513Z,99083.16
2022-12-03T09:23:23.512Z,99086.84
2022-12-03T09:25:50.072Z,99085.81
2022-12-03T09:28:17.002Z,99089.44
2022-12-03T09:30:44.253Z,99097.16
2022-12-03T09:33:10.889Z,99109.19
2022-12-03T09:35:37.483Z,99101.66
2022-12-03T09:38:04.039Z,99104.38
2022-12-03T09:40:30.688Z,99112.00
2022-12-03T09:42:58.698Z,99115.53
2022-12-03T09:45:25.534Z,99113.94
2022-12-03T09:47:52.521Z,99114.22
2022-12-03T09:50:25.537Z,99115.41
2022-12-03T09:52:55.106Z,99113.16
2022-12-03T09:55:24.914Z,99107.34
2022-12-03T09:57:56.506Z,99119.66
2022-12-03T10:00:26.345Z,99118.81
2022-12-03T10:02:56.484Z,99123.13
2022-12-03T10:05:23.578Z,99114.78
2022-12-03T10:07:52.108Z,99126.59
2022-12-03T10:10:24.443Z,99124.75
2022-12-03T10:12:52.305Z,99113.03
2022-12-03T10:15:21.753Z,99117.31
2022-12-03T10:17:50.775Z,99114.09
2022-12-03T10:20:19.356Z,99112.56
2022-12-03T10:22:48.730Z,99120.00
2022-12-03T10:25:20.693Z,99119.22
2022-12-03T10:27:59.212Z,99116.06
2022-12-03T10:30:28.578Z,99116.28
2022-12-03T10:32:57.809Z,99121.19
2022-12-03T10:35:26.084Z,99118.75
2022-12-03T10:38:01.611Z,99118.41
2022-12-03T10:40:32.045Z,99111.78
2022-12-03T10:43:20.111Z,99108.88
2022-12-03T10:46:03.846Z,99110.53
2022-12-03T10:48:31.270Z,99102.09
2022-12-03T10:51:09.442Z,99089.72
2022-12-03T10:53:38.595Z,99091.56
2022-12-03T10:56:08.135Z,99082.66
2022-12-03T10:58:36.788Z,99076.56
2022-12-03T11:01:13.211Z,99073.41
2022-12-03T11:03:39.883Z,99055.53
2022-12-03T11:06:06.738Z,99059.28
2022-12-03T11:08:37.346Z,99060.50
2022-12-03T11:11:07.209Z,99055.56
2022-12-03T11:13:33.653Z,99053.09
2022-12-03T11:16:05.670Z,99047.16
2022-12-03T11:18:38.481Z,99050.91
2022-12-03T11:21:11.355Z,99038.78
2022-12-03T11:23:46.834Z,99038.03
2022-12-03T11:26:37.477Z,99028.09
2022-12-03T11:29:12.429Z,99039.41
2022-12-03T11:31:43.850Z,99038.91
2022-12-03T11:34:19.665Z,99032.56
2022-12-03T11:37:11.185Z,99029.41
2022-12-03T11:39:49.807Z,99027.56
2022-12-03T11:42:28.507Z,99014.41
2022-12-03T11:45:04.294Z,99015.66
2022-12-03T11:48:01.342Z,99015.03
2022-12-03T11:50:39.667Z,99006.06
2022-12-03T11:53:25.483Z,99010.53
2022-12-03T11:56:13.408Z,99007.97
2022-12-03T11:58:43.127Z,99009.03
2022-12-03T12:01:09.658Z,99005.81
2022-12-03T12:03:41.816Z,99000.00
2022-12-03T12:06:11.028Z,99004.19
2022-12-03T12:08:49.846Z,99001.25
2022-12-03T12:11:20.435Z,98997.72
2022-12-03T12:13:46.849Z,98998.50
2022-12-03T12:16:13.468Z,98988.38
2022-12-03T12:18:55.043Z,98987.94
2022-12-03T12:21:47.569Z,98986.69
2022-12-03T12:24:33.498Z,98979.06
2022-12-03T12:27:03.254Z,98975.63
2022-12-03T12:29:29.870Z,98967.78
2022-12-03T12:32:17.250Z,98962.59
2022-12-03T12:34:54.142Z,98963.00
2022-12-03T12:37:22.137Z,98963.81
2022-12-03T12:39:52.842Z,98956.72
2022-12-03T12:42:25.429Z,98956.69
2022-12-03T12:44:52.477Z,98959.09
2022-12-03T12:47:19.088Z,98954.41
2022-12-03T12:49:51.477Z,98947.69
2022-12-03T12:52:18.317Z,98957.31
2022-12-03T12:54:44.929Z,98952.47
2022-12-03T12:57:19.168Z,98947.31
2022-12-03T12:59:45.647Z,98941.28
2022-12-03T13:02:41.157Z,98936.97
2022-12-03T13:05:11.698Z,98927.38
2022-12-03T13:07:40.208Z,98918.91
2022-12-03T13:10:32.533Z,98922.97
2022-12-03T13:13:21.571Z,98919.69
2022-12-03T13:16:00.422Z,98915.53
2022-12-03T13:18:34.410Z,98902.88
2022-12-03T13:21:13.709Z,98910.53
2022-12-03T13:23:40.694Z,98911.22
2022-12-03T13:26:38.249Z,98906.16
2022-12-03T13:29:18.428Z,98921.28
2022-12-03T13:32:16.013Z,98928.97
2022-12-03T13:34:44.460Z,98927.44
2022-12-03T13:37:27.563Z,98935.72
2022-12-03T13:39:58.933Z,98938.66
2022-12-03T13:42:39.247Z,98936.88
2022-12-03T13:45:25.872Z,98927.75
2022-12-03T13:47:58.413Z,98937.03
2022-12-03T13:50:41.248Z,98934.47
2022-12-03T13:53:26.735Z,98932.56
2022-12-03T13:56:20.665Z,98928.13
2022-12-03T13:58:47.177Z,98923.97
2022-12-03T14:01:13.741Z,98926.31
2022-12-03T14:03:40.235Z,98922.59
2022-12-03T14:06:07.120Z,98928.47
2022-12-03T14:08:33.714Z,98924.47
2022-12-03T14:11:00.903Z,98922.72
2022-12-03T14:13:28.319Z,98917.53
2022-12-03T14:15:54.945Z,98919.16
2022-12-03T14:18:21.598Z,98916.56
2022-12-03T14:20:48.359Z,98915.78
2022-12-03T14:23:15.363Z,98909.44
2022-12-03T14:25:43.951Z,98915.59
2022-12-03T14:28:11.063Z,98912.19
2022-12-03T14:30:37.935Z,98914.66
2022-12-03T14:33:04.616Z,98913.31
2022-12-03T14:35:31.280Z,98914.16
2022-12-03T14:37:57.904Z,98915.16
2022-12-03T14:40:24.491Z,98908.22
2022-12-03T14:42:51.062Z,98907.22
2022-12-03T14:45:17.609Z,98903.84
2022-12-03T14:47:44.069Z,98894.84
2022-12-03T14:50:14.281Z,98899.91
2022-12-03T14:52:41.186Z,98900.06
2022-12-03T14:55:08.117Z,98910.84
2022-12-03T14:57:34.619Z,98925.44
2022-12-03T15:00:01.540Z,98916.88
2022-12-03T15:02:28.853Z,98923.63
2022-12-03T15:04:55.488Z,98921.97
2022-12-03T15:07:22.073Z,98933.75
2022-12-03T15:09:48.951Z,98926.34
2022-12-03T15:12:15.541Z,98922.94
2022-12-03T15:14:42.588Z,98928.88
2022-12-03T15:17:09.393Z,98931.03
2022-12-03T15:19:36.192Z,98927.72
2022-12-03T15:22:03.203Z,98922.56
2022-12-03T15:24:29.802Z,98920.97
2022-12-03T15:26:56.451Z,98928.47
2022-12-03T15:29:23.853Z,98928.44
2022-12-03T15:31:50.533Z,98930.06
2022-12-03T15:34:22.103Z,98931.16
2022-12-03T15:36:48.858Z,98927.88
2022-12-03T15:39:15.367Z,98935.34
2022-12-03T15:41:41.850Z,98939.50
2022-12-03T15:44:08.375Z,98935.50
2022-12-03T15:46:35.006Z,98940.34
2022-12-03T15:49:01.584Z,98936.28
2022-12-03T15:51:28.310Z,98942.22
2022-12-03T15:53:54.796Z,98935.13
2022-12-03T15:56:21.382Z,98940.47
2022-12-03T15:58:47.901Z,98938.09
2022-12-03T16:01:14.792Z,98938.19
2022-12-03T16:03:41.803Z,98936.78
2022-12-03T16:06:08.824Z,98940.50
2022-12-03T16:08:35.569Z,98938.94
2022-12-03T16:11:02.044Z,98942.81
2022-12-03T16:13:28.504Z,98937.56
2022-12-03T16:15:55.120Z,98944.47
2022-12-03T16:18:21.685Z,98939.94
2022-12-03T16:20:48.238Z,98943.09
2022-12-03T16:23:14.789Z,98939.91
2022-12-03T16:25:41.314Z,98943.81
2022-12-03T16:28:08.283Z,98936.53
2022-12-03T16:30:36.610Z,98935.91
2022-12-03T16:33:03.582Z,98935.66
2022-12-03T16:35:30.090Z,98936.09
2022-12-03T16:37:56.846Z,98946.56
2022-12-03T16:40:23.341Z,98939.00
2022-12-03T16:42:49.877Z,98933.69
2022-12-03T16:45:33.421Z,98939.75
2022-12-03T16:48:01.335Z,98938.31
2022-12-03T16:50:30.345Z,98933.66
2022-12-03T16:52:57.703Z,98935.53
2022-12-03T16:55:24.333Z,98938.97
2022-12-03T16:57:50.909Z,98936.53
2022-12-03T17:00:17.641Z,98944.41
2022-12-03T17:02:44.333Z,98936.41
2022-12-03T17:05:10.960Z,98926.53
2022-12-03T17:07:37.814Z,98935.56
2022-12-03T17:10:04.992Z,98931.94
2022-12-03T17:13:00.829Z,98928.03
2022-12-03T17:15:17.981Z,98924.06
2022-12-03T17:17:44.469Z,98928.53
2022-12-03T17:20:12.569Z,98925.06
2022-12-03T17:22:40.253Z,98926.31
2022-12-03T17:25:07.558Z,98926.88
2022-12-03T17:27:34.109Z,98934.03
2022-12-03T17:30:00.802Z,98927.31
2022-12-03T17:32:27.441Z,98924.66
2022-12-03T17:34:54.001Z,98929.25
2022-12-03T17:37:20.521Z,98929.47
2022-12-03T17:39:47.124Z,98929.25
2022-12-03T17:42:13.593Z,98939.53
2022-12-03T17:44:40.782Z,98934.84
2022-12-03T17:47:07.299Z,98934.75
2022-12-03T17:49:33.910Z,98938.19
2022-12-03T17:52:00.644Z,98944.53
2022-12-03T17:54:38.147Z,98940.06
2022-12-03T17:57:14.208Z,98939.19
2022-12-03T17:59:41.000Z,98941.56
2022-12-03T18:02:07.696Z,98939.31
2022-12-03T18:04:34.406Z,98933.94
2022-12-03T18:07:02.572Z,98934.31
2022-12-03T18:09:29.352Z,98937.69
2022-12-03T18:11:55.869Z,98945.63
2022-12-03T18:14:22.404Z,98948.19
2022-12-03T18:16:48.916Z,98941.69
2022-12-03T18:19:15.469Z,98952.88
2022-12-03T18:21:42.795Z,98943.97
2022-12-03T18:24:09.567Z,98943.59
2022-12-03T18:26:39.203Z,98946.41
2022-12-03T18:29:05.726Z,98943.19
2022-12-03T18:31:32.537Z,98946.72
2022-12-03T18:33:59.224Z,98946.63
2022-12-03T18:36:30.007Z,98946.81
2022-12-03T18:38:58.453Z,98943.03
2022-12-03T18:41:25.339Z,98942.00
2022-12-03T18:43:52.363Z,98948.75
2022-12-03T18:49:06.392Z,98957.53
2022-12-03T18:51:32.958Z,98953.91
2022-12-03T18:53:59.498Z,98948.28
2022-12-03T18:56:26.311Z,98957.38
2022-12-03T18:58:52.796Z,98949.78
2022-12-03T19:01:21.589Z,98951.06
2022-12-03T19:03:49.321Z,98943.25
2022-12-03T19:06:19.619Z,98947.78
2022-12-03T19:08:48.202Z,98949.44
2022-12-03T19:11:16.017Z,98957.34
2022-12-03T19:13:42.594Z,98959.41
2022-12-03T19:16:10.523Z,98959.78
2022-12-03T19:18:37.151Z,98960.19
2022-12-03T19:21:08.919Z,98962.38
2022-12-03T19:23:36.422Z,98966.00
2022-12-03T19:26:05.462Z,98967.25
2022-12-03T19:28:32.693Z,98950.84
2022-12-03T19:31:05.515Z,98957.25
2022-12-03T19:33:33.007Z,98954.34
2022-12-03T19:36:00.875Z,98944.25
2022-12-03T19:38:29.067Z,98941.72
2022-12-03T19:41:07.277Z,98931.41
2022-12-03T19:43:36.633Z,98925.94
2022-12-03T19:46:11.894Z,98922.06
2022-12-03T19:48:40.270Z,98912.59
2022-12-03T19:51:33.187Z,98898.13
2022-12-03T19:53:55.019Z,98885.94
2022-12-03T19:56:22.199Z,98869.63
2022-12-03T19:58:48.709Z,98864.81
2022-12-03T20:01:20.823Z,98849.25
2022-12-03T20:03:49.890Z,98832.41
2022-12-03T20:06:18.593Z,98834.16
2022-12-03T20:08:45.565Z,98837.06
2022-12-03T20:11:18.419Z,98830.41
2022-12-03T20:13:45.407Z,98808.03
2022-12-03T20:16:14.060Z,98787.09
2022-12-03T20:18:42.221Z,98788.94
2022-12-03T20:21:11.332Z,98776.63
2022-12-03T20:23:38.630Z,98761.34
2022-12-03T20:26:14.389Z,98750.69
2022-12-03T20:28:41.510Z,98748.94
2022-12-03T20:31:13.313Z,98756.88
2022-12-03T20:33:42.377Z,98774.88
2022-12-03T20:36:10.173Z,98776.66
2022-12-03T20:38:37.458Z,98787.06
2022-12-03T20:41:07.246Z,98791.72
2022-12-03T20:43:34.524Z,98802.03
2022-12-03T20:46:08.977Z,98795.03
2022-12-03T20:48:36.047Z,98785.25
2022-12-03T20:51:07.399Z,98777.63
2022-12-03T20:53:35.188Z,98787.69
2022-12-03T20:56:02.655Z,98797.69
2022-12-03T20:58:30.679Z,98799.16
2022-12-03T21:01:15.317Z,98798.66
2022-12-03T21:03:42.946Z,98798.31
2022-12-03T21:06:10.393Z,98793.94
2022-12-03T21:08:41.444Z,98783.19
2022-12-03T21:11:21.201Z,98772.56
2022-12-03T21:13:48.136Z,98767.06
2022-12-03T21:16:17.736Z,98768.69
2022-12-03T21:18:44.862Z,98766.38
2022-12-03T21:21:13.953Z,98755.72
2022-12-03T21:23:41.268Z,98745.56
2022-12-03T21:26:16.056Z,98741.44
2022-12-03T21:28:44.354Z,98733.94
2022-12-03T21:31:20.254Z,98735.84
2022-12-03T21:33:47.333Z,98738.84
2022-12-03T21:36:16.710Z,98747.13
2022-12-03T21:38:44.714Z,98750.16
2022-12-03T21:41:12.070Z,98749.63
2022-12-03T21:43:38.666Z,98749.88
2022-12-03T21:47:09.617Z,98740.22
2022-12-03T21:48:57.076Z,98750.81
2022-12-03T21:51:23.597Z,98755.56
2022-12-03T21:53:50.804Z,98749.22
2022-12-03T21:56:18.818Z,98743.84
2022-12-03T21:58:45.781Z,98746.19
2022-12-03T22:01:19.343Z,98745.47
2022-12-03T22:03:45.924Z,98734.41
2022-12-03T22:06:13.115Z,98729.16
2022-12-03T22:08:39.965Z,98725.78
2022-12-03T22:11:21.609Z,98742.25
2022-12-03T22:13:48.754Z,98737.78
2022-12-03T22:16:18.513Z,98750.09
2022-12-03T22:18:45.245Z,98747.66
2022-12-03T22:21:15.830Z,98754.53
2022-12-03T22:23:42.857Z,98746.13
2022-12-03T22:26:13.011Z,98742.53
2022-12-03T22:28:43.430Z,98735.09
2022-12-03T22:31:10.890Z,98761.94
2022-12-03T22:33:37.778Z,98764.59
2022-12-03T22:36:12.189Z,98776.88
2022-12-03T22:38:42.904Z,98788.31
2022-12-03T22:41:11.808Z,98794.63
2022-12-03T22:43:38.900Z,98814.84
2022-12-03T22:46:07.201Z,98836.53
2022-12-03T22:48:34.842Z,98826.31
2022-12-03T22:51:01.979Z,98826.91
2022-12-03T22:53:28.561Z,98808.31
2022-12-03T22:55:57.844Z,98807.56
2022-12-03T22:58:26.331Z,98806.28
2022-12-03T23:00:55.259Z,98809.06
2022-12-03T23:03:25.514Z,98811.72
2022-12-03T23:05:52.216Z,98813.00
2022-12-03T23:08:20.927Z,98820.13
2022-12-03T23:10:49.947Z,98827.06
2022-12-03T23:13:18.580Z,98827.53
2022-12-03T23:15:47.593Z,98832.31
2022-12-03T23:18:14.365Z,98833.47
2022-12-03T23:20:43.003Z,98827.63
2022-12-03T23:23:09.569Z,98820.28
2022-12-03T23:25:37.286Z,98816.91
2022-12-03T23:28:04.440Z,98824.00
2022-12-03T23:30:31.586Z,98823.53
2022-12-03T23:32:58.433Z,98835.25
2022-12-03T23:35:24.911Z,98835.28
2022-12-03T23:37:51.623Z,98831.31
2022-12-03T23:40:18.442Z,98835.25
2022-12-03T23:42:44.928Z,98844.25
2022-12-03T23:45:11.544Z,98849.00
2022-12-03T23:47:38.097Z,98868.44
2022-12-03T23:50:05.238Z,98872.19
2022-12-03T23:52:31.756Z,98865.69
2022-12-03T23:54:58.948Z,98871.28
2022-12-03T23:57:25.441Z,98865.88
2022-12-03T23:59:52.067Z,98875.94
